sensor_id;sensor_type;location;lat;lon;timestamp;P1;durP1;ratioP1;P2;durP2;ratioP2
35703;SDS011;21820;51.112;13.762;2023-04-24T00:00:11;34.83;;;2.03;;
35703;SDS011;21820;51.112;13.762;2023-04-24T00:02:39;25.45;;;1.83;;
35703;SDS011;21820;51.112;13.762;2023-04-24T00:05:06;27.60;;;1.50;;
35703;SDS011;21820;51.112;13.762;2023-04-24T00:07:32;35.30;;;2.03;;
35703;SDS011;21820;51.112;13.762;2023-04-24T00:09:58;64.53;;;3.83;;
35703;SDS011;21820;51.112;13.762;2023-04-24T00:12:24;13.55;;;0.85;;
35703;SDS011;21820;51.112;13.762;2023-04-24T00:14:50;31.05;;;1.83;;
35703;SDS011;21820;51.112;13.762;2023-04-24T00:17:15;47.25;;;2.65;;
35703;SDS011;21820;51.112;13.762;2023-04-24T00:19:44;23.15;;;1.42;;
35703;SDS011;21820;51.112;13.762;2023-04-24T00:22:10;53.58;;;3.25;;
35703;SDS011;21820;51.112;13.762;2023-04-24T00:24:35;28.37;;;1.70;;
35703;SDS011;21820;51.112;13.762;2023-04-24T00:27:01;99.63;;;5.47;;
35703;SDS011;21820;51.112;13.762;2023-04-24T00:29:27;39.63;;;2.10;;
35703;SDS011;21820;51.112;13.762;2023-04-24T00:31:53;33.23;;;2.13;;
35703;SDS011;21820;51.112;13.762;2023-04-24T00:34:19;42.20;;;2.47;;
35703;SDS011;21820;51.112;13.762;2023-04-24T00:36:44;41.50;;;2.53;;
35703;SDS011;21820;51.112;13.762;2023-04-24T00:39:10;49.15;;;3.15;;
35703;SDS011;21820;51.112;13.762;2023-04-24T00:41:35;34.23;;;2.13;;
35703;SDS011;21820;51.112;13.762;2023-04-24T00:44:01;35.22;;;1.95;;
35703;SDS011;21820;51.112;13.762;2023-04-24T00:46:26;50.38;;;2.72;;
35703;SDS011;21820;51.112;13.762;2023-04-24T00:48:52;20.70;;;1.30;;
35703;SDS011;21820;51.112;13.762;2023-04-24T00:51:18;46.33;;;2.65;;
35703;SDS011;21820;51.112;13.762;2023-04-24T00:53:43;8.97;;;0.67;;
35703;SDS011;21820;51.112;13.762;2023-04-24T00:56:09;41.90;;;2.23;;
35703;SDS011;21820;51.112;13.762;2023-04-24T00:58:34;28.13;;;1.55;;
35703;SDS011;21820;51.112;13.762;2023-04-24T01:01:00;28.08;;;1.67;;
35703;SDS011;21820;51.112;13.762;2023-04-24T01:05:55;44.73;;;2.50;;
35703;SDS011;21820;51.112;13.762;2023-04-24T01:08:20;52.63;;;3.17;;
35703;SDS011;21820;51.112;13.762;2023-04-24T01:10:52;24.27;;;1.60;;
35703;SDS011;21820;51.112;13.762;2023-04-24T01:13:18;53.53;;;3.27;;
35703;SDS011;21820;51.112;13.762;2023-04-24T01:15:45;43.42;;;2.30;;
35703;SDS011;21820;51.112;13.762;2023-04-24T01:18:10;16.00;;;1.08;;
35703;SDS011;21820;51.112;13.762;2023-04-24T01:20:35;62.72;;;3.70;;
35703;SDS011;21820;51.112;13.762;2023-04-24T01:23:04;11.00;;;0.95;;
35703;SDS011;21820;51.112;13.762;2023-04-24T01:25:30;83.10;;;4.88;;
35703;SDS011;21820;51.112;13.762;2023-04-24T01:27:56;46.70;;;2.53;;
35703;SDS011;21820;51.112;13.762;2023-04-24T01:30:21;23.55;;;1.50;;
35703;SDS011;21820;51.112;13.762;2023-04-24T01:32:46;58.90;;;3.30;;
35703;SDS011;21820;51.112;13.762;2023-04-24T01:35:13;53.03;;;2.90;;
35703;SDS011;21820;51.112;13.762;2023-04-24T01:37:38;40.13;;;2.40;;
35703;SDS011;21820;51.112;13.762;2023-04-24T01:40:07;27.08;;;1.60;;
35703;SDS011;21820;51.112;13.762;2023-04-24T01:42:33;48.20;;;2.72;;
35703;SDS011;21820;51.112;13.762;2023-04-24T01:44:59;37.85;;;2.15;;
35703;SDS011;21820;51.112;13.762;2023-04-24T01:47:26;27.10;;;1.58;;
35703;SDS011;21820;51.112;13.762;2023-04-24T01:49:52;49.72;;;3.15;;
35703;SDS011;21820;51.112;13.762;2023-04-24T01:52:17;20.60;;;1.35;;
35703;SDS011;21820;51.112;13.762;2023-04-24T01:54:43;63.97;;;3.60;;
35703;SDS011;21820;51.112;13.762;2023-04-24T01:57:09;34.88;;;2.13;;
35703;SDS011;21820;51.112;13.762;2023-04-24T01:59:35;28.33;;;1.65;;
35703;SDS011;21820;51.112;13.762;2023-04-24T02:02:01;35.43;;;2.43;;
35703;SDS011;21820;51.112;13.762;2023-04-24T02:04:27;35.08;;;2.00;;
35703;SDS011;21820;51.112;13.762;2023-04-24T02:06:53;34.77;;;2.33;;
35703;SDS011;21820;51.112;13.762;2023-04-24T02:09:18;23.27;;;1.40;;
35703;SDS011;21820;51.112;13.762;2023-04-24T02:11:43;41.95;;;2.67;;
35703;SDS011;21820;51.112;13.762;2023-04-24T02:14:09;25.35;;;1.55;;
35703;SDS011;21820;51.112;13.762;2023-04-24T02:16:34;25.20;;;1.38;;
35703;SDS011;21820;51.112;13.762;2023-04-24T02:19:01;58.63;;;3.40;;
35703;SDS011;21820;51.112;13.762;2023-04-24T02:21:27;49.63;;;2.72;;
35703;SDS011;21820;51.112;13.762;2023-04-24T02:23:53;15.80;;;1.10;;
35703;SDS011;21820;51.112;13.762;2023-04-24T02:26:18;33.75;;;2.08;;
35703;SDS011;21820;51.112;13.762;2023-04-24T02:28:43;36.13;;;2.05;;
35703;SDS011;21820;51.112;13.762;2023-04-24T02:31:09;65.13;;;3.73;;
35703;SDS011;21820;51.112;13.762;2023-04-24T02:33:34;45.55;;;2.67;;
35703;SDS011;21820;51.112;13.762;2023-04-24T02:36:00;16.23;;;1.13;;
35703;SDS011;21820;51.112;13.762;2023-04-24T02:38:26;25.87;;;1.53;;
35703;SDS011;21820;51.112;13.762;2023-04-24T02:40:52;53.67;;;3.03;;
35703;SDS011;21820;51.112;13.762;2023-04-24T02:43:17;50.60;;;3.10;;
35703;SDS011;21820;51.112;13.762;2023-04-24T02:45:42;24.33;;;1.52;;
35703;SDS011;21820;51.112;13.762;2023-04-24T02:48:08;49.33;;;2.88;;
35703;SDS011;21820;51.112;13.762;2023-04-24T02:50:33;24.73;;;1.50;;
35703;SDS011;21820;51.112;13.762;2023-04-24T02:52:58;27.95;;;1.75;;
35703;SDS011;21820;51.112;13.762;2023-04-24T02:55:24;60.40;;;3.83;;
35703;SDS011;21820;51.112;13.762;2023-04-24T02:57:50;38.10;;;2.13;;
35703;SDS011;21820;51.112;13.762;2023-04-24T03:00:15;46.03;;;2.72;;
35703;SDS011;21820;51.112;13.762;2023-04-24T03:02:41;18.23;;;1.20;;
35703;SDS011;21820;51.112;13.762;2023-04-24T03:05:07;29.50;;;1.70;;
35703;SDS011;21820;51.112;13.762;2023-04-24T03:07:32;47.00;;;2.67;;
35703;SDS011;21820;51.112;13.762;2023-04-24T03:09:58;35.30;;;2.10;;
35703;SDS011;21820;51.112;13.762;2023-04-24T03:12:24;46.10;;;2.70;;
35703;SDS011;21820;51.112;13.762;2023-04-24T03:14:49;14.60;;;1.03;;
35703;SDS011;21820;51.112;13.762;2023-04-24T03:17:15;47.53;;;2.53;;
35703;SDS011;21820;51.112;13.762;2023-04-24T03:19:40;25.38;;;1.58;;
35703;SDS011;21820;51.112;13.762;2023-04-24T03:22:06;32.72;;;2.00;;
35703;SDS011;21820;51.112;13.762;2023-04-24T03:24:31;41.20;;;2.47;;
35703;SDS011;21820;51.112;13.762;2023-04-24T03:26:57;50.40;;;2.90;;
35703;SDS011;21820;51.112;13.762;2023-04-24T03:29:22;49.60;;;2.60;;
35703;SDS011;21820;51.112;13.762;2023-04-24T03:31:48;21.75;;;1.30;;
35703;SDS011;21820;51.112;13.762;2023-04-24T03:34:13;19.88;;;1.40;;
35703;SDS011;21820;51.112;13.762;2023-04-24T03:36:39;58.13;;;3.42;;
35703;SDS011;21820;51.112;13.762;2023-04-24T03:39:04;6.90;;;0.52;;
35703;SDS011;21820;51.112;13.762;2023-04-24T03:41:30;46.55;;;2.80;;
35703;SDS011;21820;51.112;13.762;2023-04-24T03:43:55;34.43;;;1.87;;
35703;SDS011;21820;51.112;13.762;2023-04-24T03:46:21;47.00;;;2.60;;
35703;SDS011;21820;51.112;13.762;2023-04-24T03:48:46;51.40;;;3.17;;
35703;SDS011;21820;51.112;13.762;2023-04-24T03:51:12;30.02;;;1.67;;
35703;SDS011;21820;51.112;13.762;2023-04-24T03:53:37;44.78;;;2.47;;
35703;SDS011;21820;51.112;13.762;2023-04-24T03:56:02;44.58;;;2.58;;
35703;SDS011;21820;51.112;13.762;2023-04-24T03:58:28;38.40;;;2.27;;
35703;SDS011;21820;51.112;13.762;2023-04-24T04:00:53;83.22;;;4.93;;
35703;SDS011;21820;51.112;13.762;2023-04-24T04:03:19;57.60;;;3.10;;
35703;SDS011;21820;51.112;13.762;2023-04-24T04:05:44;41.70;;;2.50;;
35703;SDS011;21820;51.112;13.762;2023-04-24T04:08:10;46.03;;;2.58;;
35703;SDS011;21820;51.112;13.762;2023-04-24T04:10:35;33.90;;;2.10;;
35703;SDS011;21820;51.112;13.762;2023-04-24T04:13:00;65.95;;;4.15;;
35703;SDS011;21820;51.112;13.762;2023-04-24T04:15:26;61.75;;;3.60;;
35703;SDS011;21820;51.112;13.762;2023-04-24T04:17:51;49.58;;;3.08;;
35703;SDS011;21820;51.112;13.762;2023-04-24T04:20:16;49.83;;;2.97;;
35703;SDS011;21820;51.112;13.762;2023-04-24T04:22:42;40.15;;;2.20;;
35703;SDS011;21820;51.112;13.762;2023-04-24T04:25:07;93.13;;;5.22;;
35703;SDS011;21820;51.112;13.762;2023-04-24T04:27:33;89.40;;;5.23;;
35703;SDS011;21820;51.112;13.762;2023-04-24T04:29:59;83.30;;;4.70;;
35703;SDS011;21820;51.112;13.762;2023-04-24T04:32:29;61.60;;;3.45;;
35703;SDS011;21820;51.112;13.762;2023-04-24T04:34:58;38.25;;;2.17;;
35703;SDS011;21820;51.112;13.762;2023-04-24T04:37:27;55.85;;;2.92;;
35703;SDS011;21820;51.112;13.762;2023-04-24T04:39:53;49.85;;;2.92;;
35703;SDS011;21820;51.112;13.762;2023-04-24T04:42:19;60.60;;;3.38;;
35703;SDS011;21820;51.112;13.762;2023-04-24T04:44:45;38.53;;;2.20;;
35703;SDS011;21820;51.112;13.762;2023-04-24T04:47:10;35.08;;;2.20;;
35703;SDS011;21820;51.112;13.762;2023-04-24T04:49:36;42.30;;;2.40;;
35703;SDS011;21820;51.112;13.762;2023-04-24T04:52:03;47.35;;;2.55;;
35703;SDS011;21820;51.112;13.762;2023-04-24T04:54:29;54.38;;;3.25;;
35703;SDS011;21820;51.112;13.762;2023-04-24T04:56:54;38.23;;;2.20;;
35703;SDS011;21820;51.112;13.762;2023-04-24T04:59:20;49.27;;;2.83;;
35703;SDS011;21820;51.112;13.762;2023-04-24T05:01:46;69.82;;;4.03;;
35703;SDS011;21820;51.112;13.762;2023-04-24T05:04:11;41.15;;;2.22;;
35703;SDS011;21820;51.112;13.762;2023-04-24T05:06:36;19.38;;;1.33;;
35703;SDS011;21820;51.112;13.762;2023-04-24T05:09:02;82.57;;;4.50;;
35703;SDS011;21820;51.112;13.762;2023-04-24T05:11:28;73.03;;;4.15;;
35703;SDS011;21820;51.112;13.762;2023-04-24T05:13:54;32.87;;;1.80;;
35703;SDS011;21820;51.112;13.762;2023-04-24T05:16:19;27.95;;;1.60;;
35703;SDS011;21820;51.112;13.762;2023-04-24T05:18:45;27.90;;;1.60;;
35703;SDS011;21820;51.112;13.762;2023-04-24T05:21:10;29.98;;;1.70;;
35703;SDS011;21820;51.112;13.762;2023-04-24T05:23:36;27.80;;;1.60;;
35703;SDS011;21820;51.112;13.762;2023-04-24T05:26:01;37.08;;;2.00;;
35703;SDS011;21820;51.112;13.762;2023-04-24T05:28:27;43.03;;;2.37;;
35703;SDS011;21820;51.112;13.762;2023-04-24T05:30:53;33.87;;;1.83;;
35703;SDS011;21820;51.112;13.762;2023-04-24T05:33:20;32.90;;;1.90;;
35703;SDS011;21820;51.112;13.762;2023-04-24T05:35:47;43.00;;;2.22;;
35703;SDS011;21820;51.112;13.762;2023-04-24T05:38:12;49.13;;;2.67;;
35703;SDS011;21820;51.112;13.762;2023-04-24T05:40:38;24.67;;;1.48;;
35703;SDS011;21820;51.112;13.762;2023-04-24T05:43:04;30.17;;;1.73;;
35703;SDS011;21820;51.112;13.762;2023-04-24T05:45:29;65.13;;;3.78;;
35703;SDS011;21820;51.112;13.762;2023-04-24T05:47:55;41.67;;;2.23;;
35703;SDS011;21820;51.112;13.762;2023-04-24T05:50:20;34.17;;;1.90;;
35703;SDS011;21820;51.112;13.762;2023-04-24T05:52:46;35.50;;;2.03;;
35703;SDS011;21820;51.112;13.762;2023-04-24T05:55:11;56.07;;;3.10;;
35703;SDS011;21820;51.112;13.762;2023-04-24T05:57:36;32.97;;;2.20;;
35703;SDS011;21820;51.112;13.762;2023-04-24T06:00:02;38.55;;;2.08;;
35703;SDS011;21820;51.112;13.762;2023-04-24T06:02:29;33.90;;;1.92;;
35703;SDS011;21820;51.112;13.762;2023-04-24T06:04:57;63.30;;;3.35;;
35703;SDS011;21820;51.112;13.762;2023-04-24T06:09:51;28.55;;;1.65;;
35703;SDS011;21820;51.112;13.762;2023-04-24T06:12:16;32.63;;;1.80;;
35703;SDS011;21820;51.112;13.762;2023-04-24T06:14:41;233.10;;;14.27;;
35703;SDS011;21820;51.112;13.762;2023-04-24T06:17:07;185.98;;;10.73;;
35703;SDS011;21820;51.112;13.762;2023-04-24T06:19:32;189.27;;;11.13;;
35703;SDS011;21820;51.112;13.762;2023-04-24T06:21:57;195.45;;;11.52;;
35703;SDS011;21820;51.112;13.762;2023-04-24T06:24:26;202.45;;;11.50;;
35703;SDS011;21820;51.112;13.762;2023-04-24T06:26:52;198.80;;;11.50;;
35703;SDS011;21820;51.112;13.762;2023-04-24T06:29:17;198.32;;;11.88;;
35703;SDS011;21820;51.112;13.762;2023-04-24T06:31:42;219.37;;;12.90;;
35703;SDS011;21820;51.112;13.762;2023-04-24T06:34:07;207.25;;;12.13;;
35703;SDS011;21820;51.112;13.762;2023-04-24T06:36:33;191.80;;;11.05;;
35703;SDS011;21820;51.112;13.762;2023-04-24T06:39:00;221.50;;;12.82;;
35703;SDS011;21820;51.112;13.762;2023-04-24T06:41:25;168.13;;;10.07;;
35703;SDS011;21820;51.112;13.762;2023-04-24T06:43:51;194.23;;;10.93;;
35703;SDS011;21820;51.112;13.762;2023-04-24T06:46:16;192.18;;;11.18;;
35703;SDS011;21820;51.112;13.762;2023-04-24T06:48:42;182.65;;;10.88;;
35703;SDS011;21820;51.112;13.762;2023-04-24T06:51:07;207.70;;;12.23;;
35703;SDS011;21820;51.112;13.762;2023-04-24T06:53:33;193.93;;;11.27;;
35703;SDS011;21820;51.112;13.762;2023-04-24T06:55:58;30.13;;;1.90;;
35703;SDS011;21820;51.112;13.762;2023-04-24T06:58:24;29.20;;;1.67;;
35703;SDS011;21820;51.112;13.762;2023-04-24T07:00:50;38.13;;;2.22;;
35703;SDS011;21820;51.112;13.762;2023-04-24T07:03:15;46.65;;;2.47;;
35703;SDS011;21820;51.112;13.762;2023-04-24T07:05:40;43.13;;;2.35;;
35703;SDS011;21820;51.112;13.762;2023-04-24T07:08:06;28.58;;;1.73;;
35703;SDS011;21820;51.112;13.762;2023-04-24T07:10:32;47.07;;;2.60;;
35703;SDS011;21820;51.112;13.762;2023-04-24T07:12:59;31.05;;;2.17;;
35703;SDS011;21820;51.112;13.762;2023-04-24T07:15:24;70.68;;;4.45;;
35703;SDS011;21820;51.112;13.762;2023-04-24T07:17:49;15.97;;;1.10;;
35703;SDS011;21820;51.112;13.762;2023-04-24T07:20:15;66.87;;;3.53;;
35703;SDS011;21820;51.112;13.762;2023-04-24T07:22:41;32.07;;;1.83;;
35703;SDS011;21820;51.112;13.762;2023-04-24T07:25:06;27.47;;;1.77;;
35703;SDS011;21820;51.112;13.762;2023-04-24T07:27:33;16.27;;;1.13;;
35703;SDS011;21820;51.112;13.762;2023-04-24T07:29:58;58.08;;;3.13;;
35703;SDS011;21820;51.112;13.762;2023-04-24T07:32:24;28.07;;;1.70;;
35703;SDS011;21820;51.112;13.762;2023-04-24T07:34:50;32.73;;;1.87;;
35703;SDS011;21820;51.112;13.762;2023-04-24T07:37:15;37.53;;;2.10;;
35703;SDS011;21820;51.112;13.762;2023-04-24T07:39:40;53.30;;;2.97;;
35703;SDS011;21820;51.112;13.762;2023-04-24T07:42:06;54.67;;;2.88;;
35703;SDS011;21820;51.112;13.762;2023-04-24T07:44:31;30.58;;;1.80;;
35703;SDS011;21820;51.112;13.762;2023-04-24T07:46:57;43.03;;;2.28;;
35703;SDS011;21820;51.112;13.762;2023-04-24T07:49:22;53.30;;;2.97;;
35703;SDS011;21820;51.112;13.762;2023-04-24T07:51:48;25.75;;;1.50;;
35703;SDS011;21820;51.112;13.762;2023-04-24T07:56:40;45.55;;;2.58;;
35703;SDS011;21820;51.112;13.762;2023-04-24T07:59:07;49.35;;;2.63;;
35703;SDS011;21820;51.112;13.762;2023-04-24T08:03:59;32.58;;;1.98;;
35703;SDS011;21820;51.112;13.762;2023-04-24T08:06:25;35.67;;;2.05;;
35703;SDS011;21820;51.112;13.762;2023-04-24T08:08:55;39.85;;;2.17;;
35703;SDS011;21820;51.112;13.762;2023-04-24T08:11:23;7.28;;;0.52;;
35703;SDS011;21820;51.112;13.762;2023-04-24T08:13:49;25.67;;;1.50;;
35703;SDS011;21820;51.112;13.762;2023-04-24T08:16:15;23.90;;;1.52;;
35703;SDS011;21820;51.112;13.762;2023-04-24T08:18:40;56.63;;;2.95;;
35703;SDS011;21820;51.112;13.762;2023-04-24T08:21:06;32.75;;;2.05;;
35703;SDS011;21820;51.112;13.762;2023-04-24T08:23:31;25.17;;;1.60;;
35703;SDS011;21820;51.112;13.762;2023-04-24T08:25:56;31.45;;;1.85;;
35703;SDS011;21820;51.112;13.762;2023-04-24T08:28:22;31.97;;;1.77;;
35703;SDS011;21820;51.112;13.762;2023-04-24T08:30:48;35.30;;;2.10;;
35703;SDS011;21820;51.112;13.762;2023-04-24T08:33:19;39.60;;;2.38;;
35703;SDS011;21820;51.112;13.762;2023-04-24T08:35:44;34.47;;;1.92;;
35703;SDS011;21820;51.112;13.762;2023-04-24T08:38:09;32.80;;;1.95;;
35703;SDS011;21820;51.112;13.762;2023-04-24T08:40:35;35.60;;;2.20;;
35703;SDS011;21820;51.112;13.762;2023-04-24T08:43:01;34.33;;;2.10;;
35703;SDS011;21820;51.112;13.762;2023-04-24T08:47:54;56.25;;;3.10;;
35703;SDS011;21820;51.112;13.762;2023-04-24T08:50:20;31.47;;;1.80;;
35703;SDS011;21820;51.112;13.762;2023-04-24T08:55:12;46.10;;;2.70;;
35703;SDS011;21820;51.112;13.762;2023-04-24T08:57:39;33.92;;;1.90;;
35703;SDS011;21820;51.112;13.762;2023-04-24T09:00:05;38.65;;;2.22;;
35703;SDS011;21820;51.112;13.762;2023-04-24T09:02:31;27.33;;;1.70;;
35703;SDS011;21820;51.112;13.762;2023-04-24T09:04:59;42.88;;;2.25;;
35703;SDS011;21820;51.112;13.762;2023-04-24T09:07:25;35.00;;;1.95;;
35703;SDS011;21820;51.112;13.762;2023-04-24T09:09:53;11.20;;;0.80;;
35703;SDS011;21820;51.112;13.762;2023-04-24T09:12:19;26.63;;;1.55;;
35703;SDS011;21820;51.112;13.762;2023-04-24T09:14:45;46.63;;;2.65;;
35703;SDS011;21820;51.112;13.762;2023-04-24T09:17:11;37.83;;;2.00;;
35703;SDS011;21820;51.112;13.762;2023-04-24T09:19:37;6.73;;;0.57;;
35703;SDS011;21820;51.112;13.762;2023-04-24T09:22:06;25.93;;;1.53;;
35703;SDS011;21820;51.112;13.762;2023-04-24T09:24:32;41.22;;;2.40;;
35703;SDS011;21820;51.112;13.762;2023-04-24T09:26:57;43.92;;;2.38;;
35703;SDS011;21820;51.112;13.762;2023-04-24T09:29:24;18.55;;;1.27;;
35703;SDS011;21820;51.112;13.762;2023-04-24T09:31:49;34.10;;;2.10;;
35703;SDS011;21820;51.112;13.762;2023-04-24T09:34:18;41.97;;;2.28;;
35703;SDS011;21820;51.112;13.762;2023-04-24T09:36:46;36.80;;;2.00;;
35703;SDS011;21820;51.112;13.762;2023-04-24T09:39:12;24.98;;;1.42;;
35703;SDS011;21820;51.112;13.762;2023-04-24T09:41:46;39.90;;;2.30;;
35703;SDS011;21820;51.112;13.762;2023-04-24T09:44:14;33.70;;;1.92;;
35703;SDS011;21820;51.112;13.762;2023-04-24T09:46:41;45.72;;;2.60;;
35703;SDS011;21820;51.112;13.762;2023-04-24T09:49:12;32.00;;;1.73;;
35703;SDS011;21820;51.112;13.762;2023-04-24T09:51:40;27.70;;;1.45;;
35703;SDS011;21820;51.112;13.762;2023-04-24T09:54:15;24.45;;;1.42;;
35703;SDS011;21820;51.112;13.762;2023-04-24T09:56:43;19.25;;;1.08;;
35703;SDS011;21820;51.112;13.762;2023-04-24T09:59:13;46.05;;;2.58;;
35703;SDS011;21820;51.112;13.762;2023-04-24T10:01:40;29.58;;;1.65;;
35703;SDS011;21820;51.112;13.762;2023-04-24T10:04:19;23.00;;;1.40;;
35703;SDS011;21820;51.112;13.762;2023-04-24T10:06:46;36.35;;;2.08;;
35703;SDS011;21820;51.112;13.762;2023-04-24T10:09:14;31.85;;;1.75;;
35703;SDS011;21820;51.112;13.762;2023-04-24T10:11:41;37.00;;;2.13;;
35703;SDS011;21820;51.112;13.762;2023-04-24T10:14:11;18.73;;;1.13;;
35703;SDS011;21820;51.112;13.762;2023-04-24T10:16:39;27.70;;;1.50;;
35703;SDS011;21820;51.112;13.762;2023-04-24T10:19:06;31.95;;;1.85;;
35703;SDS011;21820;51.112;13.762;2023-04-24T10:21:32;54.15;;;2.90;;
35703;SDS011;21820;51.112;13.762;2023-04-24T10:23:59;47.40;;;2.60;;
35703;SDS011;21820;51.112;13.762;2023-04-24T10:26:28;14.88;;;0.85;;
35703;SDS011;21820;51.112;13.762;2023-04-24T10:28:54;33.28;;;1.73;;
35703;SDS011;21820;51.112;13.762;2023-04-24T10:31:22;41.63;;;2.33;;
35703;SDS011;21820;51.112;13.762;2023-04-24T10:33:47;33.22;;;1.85;;
35703;SDS011;21820;51.112;13.762;2023-04-24T10:36:16;25.27;;;1.40;;
35703;SDS011;21820;51.112;13.762;2023-04-24T10:38:43;27.58;;;1.55;;
35703;SDS011;21820;51.112;13.762;2023-04-24T10:41:12;44.88;;;2.38;;
35703;SDS011;21820;51.112;13.762;2023-04-24T10:43:44;34.83;;;1.83;;
35703;SDS011;21820;51.112;13.762;2023-04-24T10:46:10;7.93;;;0.55;;
35703;SDS011;21820;51.112;13.762;2023-04-24T10:48:35;35.55;;;2.05;;
35703;SDS011;21820;51.112;13.762;2023-04-24T10:51:10;38.92;;;2.08;;
35703;SDS011;21820;51.112;13.762;2023-04-24T10:53:36;48.95;;;2.65;;
35703;SDS011;21820;51.112;13.762;2023-04-24T10:56:03;30.25;;;1.73;;
35703;SDS011;21820;51.112;13.762;2023-04-24T10:58:41;36.70;;;1.98;;
35703;SDS011;21820;51.112;13.762;2023-04-24T11:01:27;23.17;;;1.30;;
35703;SDS011;21820;51.112;13.762;2023-04-24T11:03:57;35.90;;;1.85;;
35703;SDS011;21820;51.112;13.762;2023-04-24T11:06:30;40.47;;;2.13;;
35703;SDS011;21820;51.112;13.762;2023-04-24T11:09:06;49.53;;;2.58;;
35703;SDS011;21820;51.112;13.762;2023-04-24T11:11:33;35.03;;;2.00;;
35703;SDS011;21820;51.112;13.762;2023-04-24T11:14:01;27.88;;;1.45;;
35703;SDS011;21820;51.112;13.762;2023-04-24T11:16:44;25.55;;;1.38;;
35703;SDS011;21820;51.112;13.762;2023-04-24T11:21:59;45.45;;;2.55;;
35703;SDS011;21820;51.112;13.762;2023-04-24T11:27:19;40.88;;;2.13;;
35703;SDS011;21820;51.112;13.762;2023-04-24T11:32:24;22.27;;;1.45;;
35703;SDS011;21820;51.112;13.762;2023-04-24T11:37:44;26.27;;;1.55;;
35703;SDS011;21820;51.112;13.762;2023-04-24T11:40:14;11.48;;;0.77;;
35703;SDS011;21820;51.112;13.762;2023-04-24T11:42:44;31.67;;;1.83;;
35703;SDS011;21820;51.112;13.762;2023-04-24T11:45:11;65.43;;;3.38;;
35703;SDS011;21820;51.112;13.762;2023-04-24T11:47:39;24.48;;;1.33;;
35703;SDS011;21820;51.112;13.762;2023-04-24T11:50:05;66.72;;;3.38;;
35703;SDS011;21820;51.112;13.762;2023-04-24T11:52:33;36.47;;;1.98;;
35703;SDS011;21820;51.112;13.762;2023-04-24T11:55:03;36.70;;;2.13;;
35703;SDS011;21820;51.112;13.762;2023-04-24T11:57:29;25.42;;;1.30;;
35703;SDS011;21820;51.112;13.762;2023-04-24T11:59:59;25.48;;;1.40;;
35703;SDS011;21820;51.112;13.762;2023-04-24T12:02:25;29.85;;;1.65;;
35703;SDS011;21820;51.112;13.762;2023-04-24T12:04:52;55.13;;;2.80;;
35703;SDS011;21820;51.112;13.762;2023-04-24T12:09:44;42.35;;;2.42;;
35703;SDS011;21820;51.112;13.762;2023-04-24T12:12:12;31.23;;;1.77;;
35703;SDS011;21820;51.112;13.762;2023-04-24T12:17:24;40.25;;;2.10;;
35703;SDS011;21820;51.112;13.762;2023-04-24T12:19:56;34.25;;;1.88;;
35703;SDS011;21820;51.112;13.762;2023-04-24T12:22:27;30.90;;;1.73;;
35703;SDS011;21820;51.112;13.762;2023-04-24T12:27:22;36.47;;;1.92;;
35703;SDS011;21820;51.112;13.762;2023-04-24T12:29:55;29.53;;;1.70;;
35703;SDS011;21820;51.112;13.762;2023-04-24T12:32:22;31.77;;;1.90;;
35703;SDS011;21820;51.112;13.762;2023-04-24T12:34:47;28.98;;;1.60;;
35703;SDS011;21820;51.112;13.762;2023-04-24T12:37:15;33.40;;;1.80;;
35703;SDS011;21820;51.112;13.762;2023-04-24T12:39:44;32.53;;;1.67;;
35703;SDS011;21820;51.112;13.762;2023-04-24T12:42:26;36.15;;;2.00;;
35703;SDS011;21820;51.112;13.762;2023-04-24T12:44:55;32.13;;;1.75;;
35703;SDS011;21820;51.112;13.762;2023-04-24T12:47:22;28.13;;;1.58;;
35703;SDS011;21820;51.112;13.762;2023-04-24T12:49:48;39.33;;;2.03;;
35703;SDS011;21820;51.112;13.762;2023-04-24T12:52:15;43.40;;;2.40;;
35703;SDS011;21820;51.112;13.762;2023-04-24T12:54:42;28.50;;;1.60;;
35703;SDS011;21820;51.112;13.762;2023-04-24T12:57:07;25.45;;;1.45;;
35703;SDS011;21820;51.112;13.762;2023-04-24T12:59:33;36.53;;;2.15;;
35703;SDS011;21820;51.112;13.762;2023-04-24T13:01:58;28.03;;;1.50;;
35703;SDS011;21820;51.112;13.762;2023-04-24T13:04:23;32.97;;;1.88;;
35703;SDS011;21820;51.112;13.762;2023-04-24T13:06:49;30.90;;;1.67;;
35703;SDS011;21820;51.112;13.762;2023-04-24T13:09:15;39.67;;;2.17;;
35703;SDS011;21820;51.112;13.762;2023-04-24T13:11:40;35.80;;;1.90;;
35703;SDS011;21820;51.112;13.762;2023-04-24T13:14:05;23.73;;;1.30;;
35703;SDS011;21820;51.112;13.762;2023-04-24T13:16:31;34.63;;;2.05;;
35703;SDS011;21820;51.112;13.762;2023-04-24T13:18:56;51.53;;;2.80;;
35703;SDS011;21820;51.112;13.762;2023-04-24T13:21:21;33.77;;;1.87;;
35703;SDS011;21820;51.112;13.762;2023-04-24T13:23:47;17.65;;;1.00;;
35703;SDS011;21820;51.112;13.762;2023-04-24T13:26:12;46.67;;;2.37;;
35703;SDS011;21820;51.112;13.762;2023-04-24T13:28:37;39.70;;;2.13;;
35703;SDS011;21820;51.112;13.762;2023-04-24T13:31:03;33.40;;;1.90;;
35703;SDS011;21820;51.112;13.762;2023-04-24T13:33:28;30.58;;;1.77;;
35703;SDS011;21820;51.112;13.762;2023-04-24T13:35:54;25.15;;;1.52;;
35703;SDS011;21820;51.112;13.762;2023-04-24T13:38:19;34.80;;;2.03;;
35703;SDS011;21820;51.112;13.762;2023-04-24T13:43:11;14.83;;;0.87;;
35703;SDS011;21820;51.112;13.762;2023-04-24T13:45:37;25.07;;;1.40;;
35703;SDS011;21820;51.112;13.762;2023-04-24T13:48:02;45.67;;;2.40;;
35703;SDS011;21820;51.112;13.762;2023-04-24T13:50:28;21.05;;;1.33;;
35703;SDS011;21820;51.112;13.762;2023-04-24T13:52:53;24.20;;;1.48;;
35703;SDS011;21820;51.112;13.762;2023-04-24T13:55:19;55.50;;;3.23;;
35703;SDS011;21820;51.112;13.762;2023-04-24T13:57:44;34.88;;;1.90;;
35703;SDS011;21820;51.112;13.762;2023-04-24T14:00:10;33.58;;;1.83;;
35703;SDS011;21820;51.112;13.762;2023-04-24T14:02:36;28.48;;;1.60;;
35703;SDS011;21820;51.112;13.762;2023-04-24T14:05:02;45.22;;;2.33;;
35703;SDS011;21820;51.112;13.762;2023-04-24T14:07:28;35.47;;;2.00;;
35703;SDS011;21820;51.112;13.762;2023-04-24T14:09:54;32.07;;;1.70;;
35703;SDS011;21820;51.112;13.762;2023-04-24T14:12:19;29.52;;;1.63;;
35703;SDS011;21820;51.112;13.762;2023-04-24T14:14:46;48.42;;;2.60;;
35703;SDS011;21820;51.112;13.762;2023-04-24T14:17:12;33.03;;;1.70;;
35703;SDS011;21820;51.112;13.762;2023-04-24T14:19:38;4.00;;;0.25;;
35703;SDS011;21820;51.112;13.762;2023-04-24T14:22:03;47.95;;;2.58;;
35703;SDS011;21820;51.112;13.762;2023-04-24T14:24:29;47.87;;;2.57;;
35703;SDS011;21820;51.112;13.762;2023-04-24T14:26:54;24.87;;;1.33;;
35703;SDS011;21820;51.112;13.762;2023-04-24T14:29:21;51.72;;;2.92;;
35703;SDS011;21820;51.112;13.762;2023-04-24T14:31:46;31.08;;;1.67;;
35703;SDS011;21820;51.112;13.762;2023-04-24T14:34:13;36.10;;;1.93;;
35703;SDS011;21820;51.112;13.762;2023-04-24T14:36:38;24.20;;;1.35;;
35703;SDS011;21820;51.112;13.762;2023-04-24T14:39:04;34.58;;;1.77;;
35703;SDS011;21820;51.112;13.762;2023-04-24T14:41:32;32.53;;;1.75;;
35703;SDS011;21820;51.112;13.762;2023-04-24T14:44:00;47.42;;;2.60;;
35703;SDS011;21820;51.112;13.762;2023-04-24T14:46:27;33.13;;;1.75;;
35703;SDS011;21820;51.112;13.762;2023-04-24T14:48:52;23.98;;;1.35;;
35703;SDS011;21820;51.112;13.762;2023-04-24T14:51:18;31.20;;;1.67;;